sensor_id;sensor_type;location;lat;lon;timestamp;temperature;humidity
65707;SHT31;52423;43.512;5.220;2024-02-26T00:01:36;10.40;93.62
65707;SHT31;52423;43.512;5.220;2024-02-26T00:04:02;10.39;93.67
65707;SHT31;52423;43.512;5.220;2024-02-26T00:06:29;10.36;93.82
65707;SHT31;52423;43.512;5.220;2024-02-26T00:08:54;10.34;93.91
65707;SHT31;52423;43.512;5.220;2024-02-26T00:11:19;10.39;93.80
65707;SHT31;52423;43.512;5.220;2024-02-26T00:13:45;10.32;93.97
65707;SHT31;52423;43.512;5.220;2024-02-26T00:16:10;10.34;94.01
65707;SHT31;52423;43.512;5.220;2024-02-26T00:18:35;10.33;94.04
65707;SHT31;52423;43.512;5.220;2024-02-26T00:21:02;10.36;94.08
65707;SHT31;52423;43.512;5.220;2024-02-26T00:23:28;10.33;93.78
65707;SHT31;52423;43.512;5.220;2024-02-26T00:25:53;10.29;94.12
65707;SHT31;52423;43.512;5.220;2024-02-26T00:28:18;10.34;93.80
65707;SHT31;52423;43.512;5.220;2024-02-26T00:30:45;10.33;93.90
65707;SHT31;52423;43.512;5.220;2024-02-26T00:33:11;10.29;93.89
65707;SHT31;52423;43.512;5.220;2024-02-26T00:35:36;10.33;93.73
65707;SHT31;52423;43.512;5.220;2024-02-26T00:38:01;10.33;93.67
65707;SHT31;52423;43.512;5.220;2024-02-26T00:40:28;10.29;93.69
65707;SHT31;52423;43.512;5.220;2024-02-26T00:42:54;10.29;93.76
65707;SHT31;52423;43.512;5.220;2024-02-26T00:45:19;10.23;93.87
65707;SHT31;52423;43.512;5.220;2024-02-26T00:47:45;10.20;93.92
65707;SHT31;52423;43.512;5.220;2024-02-26T00:50:12;10.28;93.65
65707;SHT31;52423;43.512;5.220;2024-02-26T00:52:37;10.28;93.50
65707;SHT31;52423;43.512;5.220;2024-02-26T00:55:03;10.24;93.50
65707;SHT31;52423;43.512;5.220;2024-02-26T00:57:28;10.20;93.63
65707;SHT31;52423;43.512;5.220;2024-02-26T00:59:54;10.22;93.62
65707;SHT31;52423;43.512;5.220;2024-02-26T01:02:21;10.19;93.94
65707;SHT31;52423;43.512;5.220;2024-02-26T01:04:47;10.17;93.75
65707;SHT31;52423;43.512;5.220;2024-02-26T01:07:12;10.19;93.95
65707;SHT31;52423;43.512;5.220;2024-02-26T01:09:38;10.13;94.06
65707;SHT31;52423;43.512;5.220;2024-02-26T01:12:03;10.17;93.93
65707;SHT31;52423;43.512;5.220;2024-02-26T01:14:29;10.17;93.85
65707;SHT31;52423;43.512;5.220;2024-02-26T01:16:54;10.13;93.77
65707;SHT31;52423;43.512;5.220;2024-02-26T01:19:20;10.13;93.82
65707;SHT31;52423;43.512;5.220;2024-02-26T01:21:46;10.12;93.77
65707;SHT31;52423;43.512;5.220;2024-02-26T01:24:11;10.12;93.83
65707;SHT31;52423;43.512;5.220;2024-02-26T01:26:37;10.12;94.03
65707;SHT31;52423;43.512;5.220;2024-02-26T01:29:02;10.10;93.78
65707;SHT31;52423;43.512;5.220;2024-02-26T01:31:27;10.10;93.84
65707;SHT31;52423;43.512;5.220;2024-02-26T01:33:53;10.06;93.92
65707;SHT31;52423;43.512;5.220;2024-02-26T01:36:19;10.08;94.03
65707;SHT31;52423;43.512;5.220;2024-02-26T01:38:44;10.03;94.41
65707;SHT31;52423;43.512;5.220;2024-02-26T01:41:09;10.12;94.41
65707;SHT31;52423;43.512;5.220;2024-02-26T01:43:35;10.09;94.29
65707;SHT31;52423;43.512;5.220;2024-02-26T01:46:00;10.09;94.17
65707;SHT31;52423;43.512;5.220;2024-02-26T01:48:26;10.12;94.08
65707;SHT31;52423;43.512;5.220;2024-02-26T01:50:51;10.13;94.01
65707;SHT31;52423;43.512;5.220;2024-02-26T01:53:18;10.17;93.96
65707;SHT31;52423;43.512;5.220;2024-02-26T01:55:45;10.14;93.85
65707;SHT31;52423;43.512;5.220;2024-02-26T01:58:10;10.12;93.94
65707;SHT31;52423;43.512;5.220;2024-02-26T02:00:37;10.12;93.88
65707;SHT31;52423;43.512;5.220;2024-02-26T02:03:03;10.14;93.90
65707;SHT31;52423;43.512;5.220;2024-02-26T02:05:30;10.10;94.13
65707;SHT31;52423;43.512;5.220;2024-02-26T02:07:56;10.13;94.08
65707;SHT31;52423;43.512;5.220;2024-02-26T02:10:22;10.13;94.06
65707;SHT31;52423;43.512;5.220;2024-02-26T02:12:50;10.13;94.02
65707;SHT31;52423;43.512;5.220;2024-02-26T02:15:16;10.09;94.34
65707;SHT31;52423;43.512;5.220;2024-02-26T02:17:42;10.09;94.15
65707;SHT31;52423;43.512;5.220;2024-02-26T02:20:09;10.06;94.18
65707;SHT31;52423;43.512;5.220;2024-02-26T02:22:34;10.12;94.13
65707;SHT31;52423;43.512;5.220;2024-02-26T02:24:59;10.14;93.91
65707;SHT31;52423;43.512;5.220;2024-02-26T02:27:26;10.10;94.05
65707;SHT31;52423;43.512;5.220;2024-02-26T02:29:52;10.19;93.75
65707;SHT31;52423;43.512;5.220;2024-02-26T02:32:19;10.17;93.48
65707;SHT31;52423;43.512;5.220;2024-02-26T02:34:44;10.16;93.66
65707;SHT31;52423;43.512;5.220;2024-02-26T02:37:10;10.14;93.64
65707;SHT31;52423;43.512;5.220;2024-02-26T02:39:36;10.17;93.46
65707;SHT31;52423;43.512;5.220;2024-02-26T02:42:01;10.20;93.59
65707;SHT31;52423;43.512;5.220;2024-02-26T02:44:27;10.17;93.47
65707;SHT31;52423;43.512;5.220;2024-02-26T02:46:52;10.16;93.78
65707;SHT31;52423;43.512;5.220;2024-02-26T02:49:18;10.17;93.89
65707;SHT31;52423;43.512;5.220;2024-02-26T02:51:44;10.20;93.78
65707;SHT31;52423;43.512;5.220;2024-02-26T02:54:09;10.24;93.70
65707;SHT31;52423;43.512;5.220;2024-02-26T02:56:34;10.24;93.64
65707;SHT31;52423;43.512;5.220;2024-02-26T02:59:01;10.23;93.63
65707;SHT31;52423;43.512;5.220;2024-02-26T03:01:27;10.26;93.57
65707;SHT31;52423;43.512;5.220;2024-02-26T03:03:52;10.23;93.69
65707;SHT31;52423;43.512;5.220;2024-02-26T03:06:17;10.19;93.91
65707;SHT31;52423;43.512;5.220;2024-02-26T03:08:43;10.14;93.61
65707;SHT31;52423;43.512;5.220;2024-02-26T03:11:13;10.10;93.62
65707;SHT31;52423;43.512;5.220;2024-02-26T03:13:39;10.01;93.92
65707;SHT31;52423;43.512;5.220;2024-02-26T03:16:05;10.05;93.96
65707;SHT31;52423;43.512;5.220;2024-02-26T03:18:31;10.02;93.97
65707;SHT31;52423;43.512;5.220;2024-02-26T03:20:56;9.99;94.30
65707;SHT31;52423;43.512;5.220;2024-02-26T03:23:21;10.02;94.43
65707;SHT31;52423;43.512;5.220;2024-02-26T03:25:47;10.08;94.38
65707;SHT31;52423;43.512;5.220;2024-02-26T03:28:13;10.13;93.95
65707;SHT31;52423;43.512;5.220;2024-02-26T03:30:38;10.12;93.88
65707;SHT31;52423;43.512;5.220;2024-02-26T03:33:04;10.06;94.22
65707;SHT31;52423;43.512;5.220;2024-02-26T03:35:29;10.01;94.45
65707;SHT31;52423;43.512;5.220;2024-02-26T03:37:55;10.01;94.63
65707;SHT31;52423;43.512;5.220;2024-02-26T03:40:20;10.05;94.58
65707;SHT31;52423;43.512;5.220;2024-02-26T03:42:46;9.96;94.71
65707;SHT31;52423;43.512;5.220;2024-02-26T03:45:11;10.02;94.71
65707;SHT31;52423;43.512;5.220;2024-02-26T03:47:38;10.01;94.65
65707;SHT31;52423;43.512;5.220;2024-02-26T03:50:05;10.06;94.30
65707;SHT31;52423;43.512;5.220;2024-02-26T03:52:31;10.02;94.28
65707;SHT31;52423;43.512;5.220;2024-02-26T03:54:57;10.03;94.41
65707;SHT31;52423;43.512;5.220;2024-02-26T03:57:22;10.01;94.32
65707;SHT31;52423;43.512;5.220;2024-02-26T03:59:48;9.96;94.28
65707;SHT31;52423;43.512;5.220;2024-02-26T04:02:13;9.99;94.22
65707;SHT31;52423;43.512;5.220;2024-02-26T04:04:38;10.03;94.11
65707;SHT31;52423;43.512;5.220;2024-02-26T04:07:04;10.01;93.85
65707;SHT31;52423;43.512;5.220;2024-02-26T04:09:31;10.06;93.70
65707;SHT31;52423;43.512;5.220;2024-02-26T04:11:57;10.03;93.74
65707;SHT31;52423;43.512;5.220;2024-02-26T04:14:22;10.06;93.65
65707;SHT31;52423;43.512;5.220;2024-02-26T04:16:47;10.02;93.56
65707;SHT31;52423;43.512;5.220;2024-02-26T04:19:16;9.96;93.54
65707;SHT31;52423;43.512;5.220;2024-02-26T04:21:42;9.96;93.69
65707;SHT31;52423;43.512;5.220;2024-02-26T04:24:07;9.95;93.67
65707;SHT31;52423;43.512;5.220;2024-02-26T04:26:33;9.95;93.66
65707;SHT31;52423;43.512;5.220;2024-02-26T04:28:58;10.02;92.91
65707;SHT31;52423;43.512;5.220;2024-02-26T04:31:24;10.03;92.70
65707;SHT31;52423;43.512;5.220;2024-02-26T04:33:49;10.03;92.64
65707;SHT31;52423;43.512;5.220;2024-02-26T04:36:15;10.02;92.88
65707;SHT31;52423;43.512;5.220;2024-02-26T04:38:42;10.02;92.53
65707;SHT31;52423;43.512;5.220;2024-02-26T04:41:07;10.05;92.39
65707;SHT31;52423;43.512;5.220;2024-02-26T04:43:33;10.05;92.11
65707;SHT31;52423;43.512;5.220;2024-02-26T04:45:58;10.06;91.67
65707;SHT31;52423;43.512;5.220;2024-02-26T04:48:23;10.10;91.46
65707;SHT31;52423;43.512;5.220;2024-02-26T04:50:49;10.10;91.58
65707;SHT31;52423;43.512;5.220;2024-02-26T04:53:14;10.06;91.70
65707;SHT31;52423;43.512;5.220;2024-02-26T04:55:39;10.09;91.56
65707;SHT31;52423;43.512;5.220;2024-02-26T04:58:05;10.09;91.52
65707;SHT31;52423;43.512;5.220;2024-02-26T05:00:30;10.08;91.64
65707;SHT31;52423;43.512;5.220;2024-02-26T05:02:56;10.05;91.68
65707;SHT31;52423;43.512;5.220;2024-02-26T05:05:21;10.03;91.79
65707;SHT31;52423;43.512;5.220;2024-02-26T05:07:47;10.02;91.96
65707;SHT31;52423;43.512;5.220;2024-02-26T05:10:12;9.92;92.16
65707;SHT31;52423;43.512;5.220;2024-02-26T05:12:38;9.89;92.34
65707;SHT31;52423;43.512;5.220;2024-02-26T05:15:04;9.92;92.49
65707;SHT31;52423;43.512;5.220;2024-02-26T05:17:30;9.92;92.31
65707;SHT31;52423;43.512;5.220;2024-02-26T05:19:55;9.85;92.60
65707;SHT31;52423;43.512;5.220;2024-02-26T05:22:20;9.89;92.24
65707;SHT31;52423;43.512;5.220;2024-02-26T05:24:46;9.91;91.81
65707;SHT31;52423;43.512;5.220;2024-02-26T05:27:11;9.96;92.15
65707;SHT31;52423;43.512;5.220;2024-02-26T05:29:37;9.95;92.22
65707;SHT31;52423;43.512;5.220;2024-02-26T05:32:03;9.92;92.40
65707;SHT31;52423;43.512;5.220;2024-02-26T05:34:29;9.85;92.46
65707;SHT31;52423;43.512;5.220;2024-02-26T05:36:55;9.81;92.77
65707;SHT31;52423;43.512;5.220;2024-02-26T05:39:20;9.86;92.46
65707;SHT31;52423;43.512;5.220;2024-02-26T05:41:46;9.83;92.44
65707;SHT31;52423;43.512;5.220;2024-02-26T05:44:12;9.85;92.45
65707;SHT31;52423;43.512;5.220;2024-02-26T05:46:37;9.79;92.82
65707;SHT31;52423;43.512;5.220;2024-02-26T05:49:02;9.77;93.21
65707;SHT31;52423;43.512;5.220;2024-02-26T05:51:28;9.74;93.60
65707;SHT31;52423;43.512;5.220;2024-02-26T05:53:53;9.74;93.64
65707;SHT31;52423;43.512;5.220;2024-02-26T05:56:23;9.72;93.68
65707;SHT31;52423;43.512;5.220;2024-02-26T05:58:48;9.70;93.68
65707;SHT31;52423;43.512;5.220;2024-02-26T06:01:15;9.75;93.66
65707;SHT31;52423;43.512;5.220;2024-02-26T06:03:41;9.71;93.44
65707;SHT31;52423;43.512;5.220;2024-02-26T06:06:06;9.70;93.61
65707;SHT31;52423;43.512;5.220;2024-02-26T06:08:31;9.78;93.18
65707;SHT31;52423;43.512;5.220;2024-02-26T06:10:57;9.77;92.86
65707;SHT31;52423;43.512;5.220;2024-02-26T06:13:22;9.75;93.08
65707;SHT31;52423;43.512;5.220;2024-02-26T06:15:47;9.77;93.13
65707;SHT31;52423;43.512;5.220;2024-02-26T06:18:13;9.71;93.31
65707;SHT31;52423;43.512;5.220;2024-02-26T06:20:38;9.65;93.64
65707;SHT31;52423;43.512;5.220;2024-02-26T06:23:04;9.68;93.72
65707;SHT31;52423;43.512;5.220;2024-02-26T06:25:29;9.71;93.15
65707;SHT31;52423;43.512;5.220;2024-02-26T06:27:55;9.61;93.34
65707;SHT31;52423;43.512;5.220;2024-02-26T06:30:20;9.62;93.68
65707;SHT31;52423;43.512;5.220;2024-02-26T06:32:46;9.65;93.55
65707;SHT31;52423;43.512;5.220;2024-02-26T06:35:11;9.59;93.83
65707;SHT31;52423;43.512;5.220;2024-02-26T06:37:37;9.61;93.76
65707;SHT31;52423;43.512;5.220;2024-02-26T06:40:02;9.59;93.98
65707;SHT31;52423;43.512;5.220;2024-02-26T06:42:34;9.59;94.01
65707;SHT31;52423;43.512;5.220;2024-02-26T06:45:00;9.62;93.87
65707;SHT31;52423;43.512;5.220;2024-02-26T06:47:26;9.65;93.59
65707;SHT31;52423;43.512;5.220;2024-02-26T06:49:51;9.62;93.64
65707;SHT31;52423;43.512;5.220;2024-02-26T06:52:17;9.67;93.41
65707;SHT31;52423;43.512;5.220;2024-02-26T06:54:42;9.68;92.99
65707;SHT31;52423;43.512;5.220;2024-02-26T06:57:07;9.64;93.03
65707;SHT31;52423;43.512;5.220;2024-02-26T06:59:33;9.67;92.90
65707;SHT31;52423;43.512;5.220;2024-02-26T07:01:58;9.61;93.18
65707;SHT31;52423;43.512;5.220;2024-02-26T07:04:24;9.68;92.77
65707;SHT31;52423;43.512;5.220;2024-02-26T07:06:49;9.71;92.43
65707;SHT31;52423;43.512;5.220;2024-02-26T07:09:15;9.75;92.14
65707;SHT31;52423;43.512;5.220;2024-02-26T07:11:41;9.78;91.58
65707;SHT31;52423;43.512;5.220;2024-02-26T07:14:10;9.74;91.88
65707;SHT31;52423;43.512;5.220;2024-02-26T07:16:35;9.74;91.85
65707;SHT31;52423;43.512;5.220;2024-02-26T07:19:01;9.75;91.81
65707;SHT31;52423;43.512;5.220;2024-02-26T07:21:26;9.74;91.60
65707;SHT31;52423;43.512;5.220;2024-02-26T07:23:52;9.74;91.58
65707;SHT31;52423;43.512;5.220;2024-02-26T07:26:17;9.72;90.81
65707;SHT31;52423;43.512;5.220;2024-02-26T07:28:44;9.70;91.41
65707;SHT31;52423;43.512;5.220;2024-02-26T07:31:10;9.71;91.38
65707;SHT31;52423;43.512;5.220;2024-02-26T07:33:35;9.70;91.19
65707;SHT31;52423;43.512;5.220;2024-02-26T07:36:00;9.72;90.51
65707;SHT31;52423;43.512;5.220;2024-02-26T07:38:26;9.75;90.42
65707;SHT31;52423;43.512;5.220;2024-02-26T07:40:51;9.72;91.21
65707;SHT31;52423;43.512;5.220;2024-02-26T07:43:17;9.72;91.29
65707;SHT31;52423;43.512;5.220;2024-02-26T07:45:42;9.68;91.51
65707;SHT31;52423;43.512;5.220;2024-02-26T07:48:08;9.71;92.00
65707;SHT31;52423;43.512;5.220;2024-02-26T07:50:33;9.79;92.31
65707;SHT31;52423;43.512;5.220;2024-02-26T07:52:58;9.75;92.46
65707;SHT31;52423;43.512;5.220;2024-02-26T07:55:24;9.74;93.01
65707;SHT31;52423;43.512;5.220;2024-02-26T07:57:49;9.75;92.97
65707;SHT31;52423;43.512;5.220;2024-02-26T08:00:15;9.71;93.05
65707;SHT31;52423;43.512;5.220;2024-02-26T08:02:42;9.70;92.74
65707;SHT31;52423;43.512;5.220;2024-02-26T08:05:08;9.72;91.94
65707;SHT31;52423;43.512;5.220;2024-02-26T08:07:33;9.72;91.34
65707;SHT31;52423;43.512;5.220;2024-02-26T08:09:59;9.74;91.58
65707;SHT31;52423;43.512;5.220;2024-02-26T08:12:24;9.83;91.67
65707;SHT31;52423;43.512;5.220;2024-02-26T08:14:49;9.92;91.13
65707;SHT31;52423;43.512;5.220;2024-02-26T08:17:15;9.88;91.08
65707;SHT31;52423;43.512;5.220;2024-02-26T08:19:40;9.93;91.03
65707;SHT31;52423;43.512;5.220;2024-02-26T08:22:06;9.89;91.71
65707;SHT31;52423;43.512;5.220;2024-02-26T08:24:31;9.88;92.03
65707;SHT31;52423;43.512;5.220;2024-02-26T08:26:57;9.88;92.32
65707;SHT31;52423;43.512;5.220;2024-02-26T08:29:22;9.89;92.58
65707;SHT31;52423;43.512;5.220;2024-02-26T08:31:47;9.95;92.77
65707;SHT31;52423;43.512;5.220;2024-02-26T08:34:14;9.99;92.78
65707;SHT31;52423;43.512;5.220;2024-02-26T08:36:39;10.03;93.00
65707;SHT31;52423;43.512;5.220;2024-02-26T08:39:04;10.14;92.96
65707;SHT31;52423;43.512;5.220;2024-02-26T08:41:30;10.24;92.85
65707;SHT31;52423;43.512;5.220;2024-02-26T08:43:55;10.37;93.49
65707;SHT31;52423;43.512;5.220;2024-02-26T08:46:21;10.43;93.35
65707;SHT31;52423;43.512;5.220;2024-02-26T08:48:46;10.49;93.26
65707;SHT31;52423;43.512;5.220;2024-02-26T08:51:12;10.67;93.42
65707;SHT31;52423;43.512;5.220;2024-02-26T08:53:38;10.71;93.09
65707;SHT31;52423;43.512;5.220;2024-02-26T08:56:04;10.71;92.77
65707;SHT31;52423;43.512;5.220;2024-02-26T08:58:30;10.84;92.33
65707;SHT31;52423;43.512;5.220;2024-02-26T09:00:56;11.04;92.10
65707;SHT31;52423;43.512;5.220;2024-02-26T09:03:21;11.33;89.23
65707;SHT31;52423;43.512;5.220;2024-02-26T09:05:47;11.60;90.10
65707;SHT31;52423;43.512;5.220;2024-02-26T09:08:13;11.94;89.41
65707;SHT31;52423;43.512;5.220;2024-02-26T09:10:39;12.31;88.70
65707;SHT31;52423;43.512;5.220;2024-02-26T09:13:04;12.51;86.91
65707;SHT31;52423;43.512;5.220;2024-02-26T09:15:30;12.66;87.01
65707;SHT31;52423;43.512;5.220;2024-02-26T09:17:55;12.76;85.75
65707;SHT31;52423;43.512;5.220;2024-02-26T09:20:21;12.86;86.67
65707;SHT31;52423;43.512;5.220;2024-02-26T09:22:48;13.04;84.80
65707;SHT31;52423;43.512;5.220;2024-02-26T09:25:14;13.12;82.48
65707;SHT31;52423;43.512;5.220;2024-02-26T09:27:43;13.22;83.54
65707;SHT31;52423;43.512;5.220;2024-02-26T09:30:10;13.22;84.53
65707;SHT31;52423;43.512;5.220;2024-02-26T09:32:36;13.24;84.47
65707;SHT31;52423;43.512;5.220;2024-02-26T09:35:01;13.17;81.49
65707;SHT31;52423;43.512;5.220;2024-02-26T09:37:27;13.10;80.00
65707;SHT31;52423;43.512;5.220;2024-02-26T09:39:52;13.13;80.35
65707;SHT31;52423;43.512;5.220;2024-02-26T09:42:19;13.19;82.23
65707;SHT31;52423;43.512;5.220;2024-02-26T09:44:45;13.20;83.98
65707;SHT31;52423;43.512;5.220;2024-02-26T09:47:11;13.27;84.89
65707;SHT31;52423;43.512;5.220;2024-02-26T09:49:42;13.41;82.34
65707;SHT31;52423;43.512;5.220;2024-02-26T09:52:08;13.47;80.04
65707;SHT31;52423;43.512;5.220;2024-02-26T09:54:35;13.48;80.79
65707;SHT31;52423;43.512;5.220;2024-02-26T09:57:02;13.50;80.88
65707;SHT31;52423;43.512;5.220;2024-02-26T09:59:29;13.57;81.79
65707;SHT31;52423;43.512;5.220;2024-02-26T10:01:55;13.68;81.73
65707;SHT31;52423;43.512;5.220;2024-02-26T10:04:22;13.77;81.33
65707;SHT31;52423;43.512;5.220;2024-02-26T10:06:49;13.92;80.57
65707;SHT31;52423;43.512;5.220;2024-02-26T10:09:16;14.04;78.20
65707;SHT31;52423;43.512;5.220;2024-02-26T10:11:41;14.02;76.97
65707;SHT31;52423;43.512;5.220;2024-02-26T10:14:08;14.05;77.73
65707;SHT31;52423;43.512;5.220;2024-02-26T10:16:34;14.08;77.52
65707;SHT31;52423;43.512;5.220;2024-02-26T10:19:00;14.09;79.84
65707;SHT31;52423;43.512;5.220;2024-02-26T10:21:26;14.19;79.73
65707;SHT31;52423;43.512;5.220;2024-02-26T10:23:51;14.06;80.80
65707;SHT31;52423;43.512;5.220;2024-02-26T10:26:17;13.97;79.76
65707;SHT31;52423;43.512;5.220;2024-02-26T10:28:43;14.00;79.06
65707;SHT31;52423;43.512;5.220;2024-02-26T10:31:09;13.97;79.19
65707;SHT31;52423;43.512;5.220;2024-02-26T10:33:36;14.04;76.67
65707;SHT31;52423;43.512;5.220;2024-02-26T10:36:03;14.18;78.55
65707;SHT31;52423;43.512;5.220;2024-02-26T10:38:29;14.25;75.70
65707;SHT31;52423;43.512;5.220;2024-02-26T10:40:55;14.28;74.27
65707;SHT31;52423;43.512;5.220;2024-02-26T10:43:20;14.33;74.68
65707;SHT31;52423;43.512;5.220;2024-02-26T10:45:46;14.30;75.95
65707;SHT31;52423;43.512;5.220;2024-02-26T10:48:13;14.19;76.43
65707;SHT31;52423;43.512;5.220;2024-02-26T10:50:40;14.21;75.65
65707;SHT31;52423;43.512;5.220;2024-02-26T10:53:15;14.16;78.25
65707;SHT31;52423;43.512;5.220;2024-02-26T10:55:43;14.00;75.48
65707;SHT31;52423;43.512;5.220;2024-02-26T10:58:12;13.85;75.53
65707;SHT31;52423;43.512;5.220;2024-02-26T11:00:39;13.97;76.75
65707;SHT31;52423;43.512;5.220;2024-02-26T11:03:05;13.98;78.90
65707;SHT31;52423;43.512;5.220;2024-02-26T11:05:33;14.11;75.79
65707;SHT31;52423;43.512;5.220;2024-02-26T11:08:00;14.21;75.72
65707;SHT31;52423;43.512;5.220;2024-02-26T11:10:26;14.28;72.92
65707;SHT31;52423;43.512;5.220;2024-02-26T11:12:54;14.33;75.97
65707;SHT31;52423;43.512;5.220;2024-02-26T11:15:21;14.39;75.64
65707;SHT31;52423;43.512;5.220;2024-02-26T11:17:47;14.47;71.96
65707;SHT31;52423;43.512;5.220;2024-02-26T11:20:13;14.43;73.11
65707;SHT31;52423;43.512;5.220;2024-02-26T11:22:39;14.47;71.71
65707;SHT31;52423;43.512;5.220;2024-02-26T11:25:05;14.42;72.65
65707;SHT31;52423;43.512;5.220;2024-02-26T11:27:36;14.39;72.32
65707;SHT31;52423;43.512;5.220;2024-02-26T11:30:05;14.33;72.55
65707;SHT31;52423;43.512;5.220;2024-02-26T11:32:34;14.42;68.83
65707;SHT31;52423;43.512;5.220;2024-02-26T11:35:00;14.37;72.04
65707;SHT31;52423;43.512;5.220;2024-02-26T11:37:26;14.42;74.61
65707;SHT31;52423;43.512;5.220;2024-02-26T11:39:52;14.44;73.61
65707;SHT31;52423;43.512;5.220;2024-02-26T11:42:23;14.47;72.52
65707;SHT31;52423;43.512;5.220;2024-02-26T11:44:48;14.56;72.19
65707;SHT31;52423;43.512;5.220;2024-02-26T11:47:18;14.56;74.49
65707;SHT31;52423;43.512;5.220;2024-02-26T11:49:44;14.60;70.64
65707;SHT31;52423;43.512;5.220;2024-02-26T11:52:10;14.44;72.57
65707;SHT31;52423;43.512;5.220;2024-02-26T11:54:49;14.30;75.99
65707;SHT31;52423;43.512;5.220;2024-02-26T11:59:49;14.29;72.45
65707;SHT31;52423;43.512;5.220;2024-02-26T12:02:44;14.32;71.90
65707;SHT31;52423;43.512;5.220;2024-02-26T12:05:12;14.36;72.53
65707;SHT31;52423;43.512;5.220;2024-02-26T12:07:46;14.39;73.10
65707;SHT31;52423;43.512;5.220;2024-02-26T12:10:37;14.49;70.41
65707;SHT31;52423;43.512;5.220;2024-02-26T12:13:11;14.46;71.94
65707;SHT31;52423;43.512;5.220;2024-02-26T12:15:39;14.42;72.52
65707;SHT31;52423;43.512;5.220;2024-02-26T12:18:06;14.50;74.06
65707;SHT31;52423;43.512;5.220;2024-02-26T12:20:33;14.47;74.81
65707;SHT31;52423;43.512;5.220;2024-02-26T12:22:58;14.55;70.99
65707;SHT31;52423;43.512;5.220;2024-02-26T12:25:27;14.66;70.75
65707;SHT31;52423;43.512;5.220;2024-02-26T12:27:53;14.67;73.24
65707;SHT31;52423;43.512;5.220;2024-02-26T12:30:19;14.57;72.24
65707;SHT31;52423;43.512;5.220;2024-02-26T12:32:45;14.47;72.29
65707;SHT31;52423;43.512;5.220;2024-02-26T12:35:11;14.50;71.03
65707;SHT31;52423;43.512;5.220;2024-02-26T12:37:38;14.60;72.42
65707;SHT31;52423;43.512;5.220;2024-02-26T12:40:08;14.66;73.17
65707;SHT31;52423;43.512;5.220;2024-02-26T12:42:37;14.70;71.83
65707;SHT31;52423;43.512;5.220;2024-02-26T12:45:08;14.73;68.95
65707;SHT31;52423;43.512;5.220;2024-02-26T12:47:41;14.74;71.73
65707;SHT31;52423;43.512;5.220;2024-02-26T12:50:07;14.83;68.91
65707;SHT31;52423;43.512;5.220;2024-02-26T12:52:34;14.80;71.22
65707;SHT31;52423;43.512;5.220;2024-02-26T12:55:01;14.60;72.72
65707;SHT31;52423;43.512;5.220;2024-02-26T12:57:29;14.37;71.51
65707;SHT31;52423;43.512;5.220;2024-02-26T12:59:55;14.33;71.55
65707;SHT31;52423;43.512;5.220;2024-02-26T13:02:21;14.16;70.22
65707;SHT31;52423;43.512;5.220;2024-02-26T13:04:47;14.19;72.83
65707;SHT31;52423;43.512;5.220;2024-02-26T13:07:12;14.19;74.16
65707;SHT31;52423;43.512;5.220;2024-02-26T13:09:38;14.49;70.98
65707;SHT31;52423;43.512;5.220;2024-02-26T13:12:05;14.69;72.05
65707;SHT31;52423;43.512;5.220;2024-02-26T13:14:31;14.88;70.89
65707;SHT31;52423;43.512;5.220;2024-02-26T13:16:58;14.91;70.79
65707;SHT31;52423;43.512;5.220;2024-02-26T13:19:24;15.07;67.85
65707;SHT31;52423;43.512;5.220;2024-02-26T13:21:50;15.21;69.85
65707;SHT31;52423;43.512;5.220;2024-02-26T13:24:15;15.31;69.13
65707;SHT31;52423;43.512;5.220;2024-02-26T13:26:41;15.36;67.56
65707;SHT31;52423;43.512;5.220;2024-02-26T13:29:07;15.41;68.34
65707;SHT31;52423;43.512;5.220;2024-02-26T13:31:39;15.53;69.17
65707;SHT31;52423;43.512;5.220;2024-02-26T13:34:05;15.59;70.88
65707;SHT31;52423;43.512;5.220;2024-02-26T13:36:30;15.48;68.84
65707;SHT31;52423;43.512;5.220;2024-02-26T13:38:56;15.42;70.88
65707;SHT31;52423;43.512;5.220;2024-02-26T13:41:22;15.48;70.75
65707;SHT31;52423;43.512;5.220;2024-02-26T13:43:48;15.48;68.52
65707;SHT31;52423;43.512;5.220;2024-02-26T13:46:14;15.49;67.52
65707;SHT31;52423;43.512;5.220;2024-02-26T13:48:41;15.39;68.65
65707;SHT31;52423;43.512;5.220;2024-02-26T13:51:07;15.17;69.32
65707;SHT31;52423;43.512;5.220;2024-02-26T13:53:32;15.04;70.66
65707;SHT31;52423;43.512;5.220;2024-02-26T13:55:58;15.01;71.31
65707;SHT31;52423;43.512;5.220;2024-02-26T13:58:29;14.93;73.44
65707;SHT31;52423;43.512;5.220;2024-02-26T14:00:54;14.83;73.00
65707;SHT31;52423;43.512;5.220;2024-02-26T14:03:20;14.67;72.72
65707;SHT31;52423;43.512;5.220;2024-02-26T14:05:46;14.56;71.60
65707;SHT31;52423;43.512;5.220;2024-02-26T14:08:11;14.43;71.58
65707;SHT31;52423;43.512;5.220;2024-02-26T14:10:37;14.37;71.74
65707;SHT31;52423;43.512;5.220;2024-02-26T14:13:03;14.29;71.02
65707;SHT31;52423;43.512;5.220;2024-02-26T14:15:28;14.25;72.33
65707;SHT31;52423;43.512;5.220;2024-02-26T14:17:54;14.19;72.18
65707;SHT31;52423;43.512;5.220;2024-02-26T14:20:22;14.05;76.06
65707;SHT31;52423;43.512;5.220;2024-02-26T14:22:51;14.01;70.75
65707;SHT31;52423;43.512;5.220;2024-02-26T14:25:20;13.97;74.07
65707;SHT31;52423;43.512;5.220;2024-02-26T14:27:47;13.86;75.40
65707;SHT31;52423;43.512;5.220;2024-02-26T14:30:12;13.88;75.05
65707;SHT31;52423;43.512;5.220;2024-02-26T14:32:38;13.88;72.86
65707;SHT31;52423;43.512;5.220;2024-02-26T14:35:07;13.89;75.16
65707;SHT31;52423;43.512;5.220;2024-02-26T14:37:34;13.86;72.83
65707;SHT31;52423;43.512;5.220;2024-02-26T14:40:00;13.81;72.39
65707;SHT31;52423;43.512;5.220;2024-02-26T14:42:25;13.81;68.74
65707;SHT31;52423;43.512;5.220;2024-02-26T14:44:51;13.85;68.13
65707;SHT31;52423;43.512;5.220;2024-02-26T14:47:16;13.88;69.02
65707;SHT31;52423;43.512;5.220;2024-02-26T14:49:42;13.81;68.61
65707;SHT31;52423;43.512;5.220;2024-02-26T14:52:07;13.72;70.30
65707;SHT31;52423;43.512;5.220;2024-02-26T14:54:33;13.70;71.84
65707;SHT31;52423;43.512;5.220;2024-02-26T14:57:03;13.63;72.34
65707;SHT31;52423;43.512;5.220;2024-02-26T14:59:30;13.65;69.12
65707;SHT31;52423;43.512;5.220;2024-02-26T15:01:56;13.67;70.89
65707;SHT31;52423;43.512;5.220;2024-02-26T15:04:22;13.60;69.99
65707;SHT31;52423;43.512;5.220;2024-02-26T15:06:47;13.57;71.98
65707;SHT31;52423;43.512;5.220;2024-02-26T15:09:13;13.44;72.92
65707;SHT31;52423;43.512;5.220;2024-02-26T15:11:39;13.46;71.36
65707;SHT31;52423;43.512;5.220;2024-02-26T15:14:05;13.47;71.48
65707;SHT31;52423;43.512;5.220;2024-02-26T15:16:30;13.48;68.18
65707;SHT31;52423;43.512;5.220;2024-02-26T15:18:55;13.43;71.18
65707;SHT31;52423;43.512;5.220;2024-02-26T15:21:21;13.37;72.34
65707;SHT31;52423;43.512;5.220;2024-02-26T15:23:46;13.27;71.83
65707;SHT31;52423;43.512;5.220;2024-02-26T15:26:12;13.19;71.77
65707;SHT31;52423;43.512;5.220;2024-02-26T15:28:37;13.19;71.78
65707;SHT31;52423;43.512;5.220;2024-02-26T15:31:03;13.22;72.59